Terminal Aerodrome Forecast
Issued by NWS Wilmington, OH

Current Version | Previous Version | Graphics & Text | Print | Product List | Glossary On
Versions: 1 2 3 4 5 6 7 8 9 10 11 12 13 14 15 16 17 18 19 20 21 22 23 24 25 26 27 28 29 30
000
FTUS41 KILN 272000 AAC
TAFCVG
TAF AMD
KCVG 272057Z 2721/2824 19009KT 6SM BR VCSH OVC008
      TEMPO 2721/2801 3SM -SHRA BR OVC005
     FM280100 25006KT 5SM BR VCSH BKN007 OVC018
     FM280800 34006KT 4SM -SHRA BR SCT003 BKN008 OVC015
     FM281500 01007KT P6SM VCSH OVC015
     FM282200 31007KT P6SM SCT025 BKN080=

USA.gov is the U.S. government's official web portal to all federal, state and local government web resources and services.